createdAt,value
2023-02-22T06:03:39.472Z,560.00
2023-02-22T07:23:21.101Z,556.00
2023-02-22T07:26:21.262Z,556.00
2023-02-22T07:27:21.350Z,558.00
2023-02-22T07:29:21.529Z,558.00
2023-02-22T07:30:21.638Z,556.00
2023-02-22T07:32:21.758Z,556.00
2023-02-22T07:33:21.679Z,556.00
2023-02-22T07:34:21.715Z,554.00
2023-02-22T07:35:21.758Z,554.00
2023-02-22T07:36:21.800Z,552.00
2023-02-22T07:38:21.924Z,551.00
2023-02-22T07:39:22.030Z,552.00
2023-02-22T07:40:22.156Z,551.00
2023-02-22T07:41:22.110Z,552.00
2023-02-22T07:42:21.180Z,551.00
2023-02-22T07:43:22.256Z,552.00
2023-02-22T07:44:21.313Z,554.00
2023-02-22T07:45:22.424Z,554.00
2023-02-22T07:46:21.403Z,552.00
2023-02-22T07:47:22.653Z,548.00
2023-02-22T07:51:00.083Z,549.00
2023-02-22T07:52:01.097Z,548.00
2023-02-22T07:53:00.927Z,549.00
2023-02-22T07:55:01.087Z,553.00
2023-02-22T07:56:00.895Z,556.00
2023-02-22T07:57:01.023Z,554.00
2023-02-22T07:58:01.054Z,555.00
2023-02-22T07:59:00.225Z,553.00
2023-02-22T08:00:00.967Z,554.00
2023-02-22T08:01:01.001Z,555.00
2023-02-22T08:02:00.973Z,554.00
2023-02-22T08:03:01.156Z,553.00
2023-02-22T08:04:02.528Z,555.00
2023-02-22T08:05:59.869Z,553.00
2023-02-22T08:07:01.047Z,551.00
2023-02-22T08:08:00.913Z,550.00
2023-02-22T08:09:00.928Z,550.00
2023-02-22T08:10:00.995Z,548.00
2023-02-22T08:10:59.920Z,546.00
2023-02-22T08:12:14.100Z,544.00
2023-02-22T08:13:00.999Z,542.00
2023-02-22T08:40:22.075Z,543.00
2023-02-22T08:44:21.274Z,546.00
2023-02-22T08:45:21.171Z,545.00
2023-02-22T08:47:21.316Z,542.00
2023-02-22T08:50:21.763Z,545.00
2023-02-22T08:51:21.392Z,546.00
2023-02-22T08:52:21.448Z,546.00
2023-02-22T08:53:21.510Z,548.00
2023-02-22T08:54:21.684Z,546.00
2023-02-22T08:55:21.806Z,546.00
2023-02-22T08:56:21.651Z,545.00
2023-02-22T08:57:21.922Z,547.00
2023-02-22T08:58:21.645Z,547.00
2023-02-22T08:59:21.681Z,544.00
2023-02-22T09:00:21.719Z,584.00
2023-02-22T09:02:21.813Z,785.00
2023-02-22T09:03:21.851Z,755.00
2023-02-22T09:04:21.867Z,736.00
2023-02-22T09:05:21.878Z,737.00
2023-02-22T09:06:22.169Z,742.00
2023-02-22T09:09:21.907Z,777.00
2023-02-22T09:10:21.913Z,785.00
2023-02-22T09:12:21.910Z,821.00
2023-02-22T09:13:21.928Z,807.00
2023-02-22T09:15:40.463Z,836.00
2023-02-22T09:19:41.913Z,844.00
2023-02-22T09:25:41.672Z,906.00
2023-02-22T09:31:03.125Z,951.00
2023-02-22T09:39:14.420Z,1027.00
2023-02-22T09:41:36.043Z,1049.00
2023-02-22T09:42:33.784Z,1034.00
2023-02-22T09:43:33.833Z,1037.00
2023-02-22T09:44:33.690Z,1041.00
2023-02-22T09:45:32.844Z,1046.00
2023-02-22T09:46:33.707Z,1047.00
2023-02-22T09:47:33.716Z,1043.00
2023-02-22T09:48:33.658Z,1040.00
2023-02-22T09:49:33.644Z,1033.00
2023-02-22T09:50:33.883Z,1025.00
2023-02-22T09:51:33.637Z,1016.00
2023-02-22T09:52:32.644Z,1010.00
2023-02-22T09:53:32.661Z,1005.00
2023-02-22T09:54:33.618Z,1000.00
2023-02-22T09:55:33.625Z,995.00
2023-02-22T09:56:33.609Z,988.00
2023-02-22T09:57:33.599Z,980.00
2023-02-22T09:58:32.579Z,980.00
2023-02-22T09:59:32.619Z,976.00
2023-02-22T10:00:32.587Z,973.00
2023-02-22T10:01:32.658Z,968.00
2023-02-22T10:02:32.593Z,962.00
2023-02-22T10:03:32.617Z,959.00
2023-02-22T10:04:32.563Z,959.00
2023-02-22T10:05:32.676Z,957.00
2023-02-22T10:06:33.548Z,954.00
2023-02-22T10:07:33.534Z,951.00
2023-02-22T10:08:33.535Z,949.00
2023-02-22T10:09:33.538Z,947.00
2023-02-22T10:10:33.602Z,946.00
2023-02-22T10:11:32.647Z,941.00
2023-02-22T10:12:32.636Z,937.00
2023-02-22T10:13:33.658Z,934.00
2023-02-22T10:14:33.690Z,934.00
2023-02-22T10:15:32.722Z,931.00
2023-02-22T10:16:32.778Z,934.00
2023-02-22T10:17:32.823Z,933.00
2023-02-22T10:18:33.941Z,935.00
2023-02-22T10:19:32.877Z,933.00
2023-02-22T10:20:33.946Z,930.00
2023-02-22T10:21:33.903Z,928.00
2023-02-22T10:22:32.906Z,925.00
2023-02-22T10:23:32.945Z,924.00
2023-02-22T10:24:33.913Z,923.00
2023-02-22T10:25:33.926Z,922.00
2023-02-22T10:26:32.924Z,921.00
2023-02-22T10:27:33.942Z,921.00
2023-02-22T10:28:33.922Z,919.00
2023-02-22T10:29:33.941Z,916.00
2023-02-22T10:30:34.608Z,918.00
2023-02-22T10:31:34.075Z,920.00
2023-02-22T10:32:34.146Z,918.00
2023-02-22T10:33:33.994Z,917.00
2023-02-22T10:34:33.998Z,916.00
2023-02-22T10:35:33.994Z,918.00
2023-02-22T10:36:33.993Z,917.00
2023-02-22T10:37:34.082Z,913.00
2023-02-22T10:38:34.033Z,911.00
2023-02-22T10:39:34.120Z,907.00
2023-02-22T10:40:33.071Z,906.00
2023-02-22T10:41:33.026Z,904.00
2023-02-22T10:42:34.019Z,904.00
2023-02-22T10:43:34.023Z,905.00
2023-02-22T10:44:34.036Z,905.00
2023-02-22T10:45:34.048Z,901.00
2023-02-22T10:46:34.009Z,900.00
2023-02-22T10:47:34.023Z,898.00
2023-02-22T10:48:34.014Z,895.00
2023-02-22T10:49:34.031Z,896.00
2023-02-22T10:50:34.439Z,894.00
2023-02-22T10:51:34.071Z,890.00
2023-02-22T10:52:34.192Z,886.00
2023-02-22T10:53:36.389Z,925.00
2023-02-22T10:54:34.102Z,934.00
2023-02-22T10:55:34.160Z,951.00
2023-02-22T10:56:34.078Z,1074.00
2023-02-22T10:57:34.066Z,1093.00
2023-02-22T10:58:33.062Z,1086.00
2023-02-22T10:59:34.061Z,1219.00
2023-02-22T11:00:34.042Z,1205.00
2023-02-22T11:01:34.105Z,1140.00
2023-02-22T11:02:33.265Z,1136.00
2023-02-22T11:03:33.030Z,1137.00
2023-02-22T11:04:33.022Z,1137.00
2023-02-22T11:05:34.002Z,1143.00
2023-02-22T11:06:34.038Z,1155.00
2023-02-22T11:07:33.996Z,1173.00
2023-02-22T11:08:33.987Z,1189.00
2023-02-22T11:09:33.969Z,1190.00
2023-02-22T11:10:34.029Z,1193.00
2023-02-22T11:11:32.975Z,1221.00
2023-02-22T11:12:32.980Z,1226.00
2023-02-22T11:13:34.051Z,1228.00
2023-02-22T11:14:33.933Z,1235.00
2023-02-22T11:15:34.010Z,1245.00
2023-02-22T11:16:33.087Z,1253.00
2023-02-22T11:17:33.923Z,1261.00
2023-02-22T11:18:33.942Z,1269.00
2023-02-22T11:19:33.018Z,1281.00
2023-02-22T11:20:33.924Z,1289.00
2023-02-22T11:21:32.929Z,1313.00
2023-02-22T11:22:33.935Z,1332.00
2023-02-22T11:23:33.917Z,1350.00
2023-02-22T11:24:48.423Z,1358.00
2023-02-22T11:25:33.901Z,1369.00
2023-02-22T11:26:33.900Z,1376.00
2023-02-22T11:27:33.899Z,1381.00
2023-02-22T11:28:33.892Z,1392.00
2023-02-22T11:29:33.942Z,1398.00
2023-02-22T11:30:34.144Z,1412.00
2023-02-22T11:31:33.885Z,1428.00
2023-02-22T11:32:32.841Z,1435.00
2023-02-22T11:33:32.844Z,1442.00
2023-02-22T11:34:33.823Z,1461.00
2023-02-22T11:35:33.839Z,1477.00
2023-02-22T11:36:33.813Z,1486.00
2023-02-22T11:37:32.803Z,1507.00
2023-02-22T11:38:33.827Z,1522.00
2023-02-22T11:39:33.886Z,1543.00
2023-02-22T11:40:34.752Z,1547.00
2023-02-22T11:41:33.931Z,1559.00
2023-02-22T11:42:33.816Z,1575.00
2023-02-22T11:43:32.772Z,1586.00
2023-02-22T11:44:33.753Z,1608.00
2023-02-22T11:45:33.804Z,1624.00
2023-02-22T11:46:33.815Z,1634.00
2023-02-22T11:47:33.788Z,1644.00
2023-02-22T11:48:32.732Z,1657.00
2023-02-22T11:49:33.741Z,1664.00
2023-02-22T11:50:33.746Z,1666.00
2023-02-22T11:51:33.840Z,1676.00
2023-02-22T11:52:33.725Z,1680.00
2023-02-22T11:53:32.697Z,1691.00
2023-02-22T11:54:32.725Z,1703.00
2023-02-22T11:55:42.807Z,1708.00
2023-02-22T11:56:38.028Z,1716.00
2023-02-22T11:57:32.991Z,1773.00
2023-02-22T11:58:32.924Z,1780.00
2023-02-22T11:59:32.951Z,1778.00
2023-02-22T12:00:34.027Z,1897.00
2023-02-22T12:01:33.034Z,1890.00
2023-02-22T12:02:34.058Z,1865.00
2023-02-22T12:03:33.207Z,1864.00
2023-02-22T12:04:34.265Z,1858.00
2023-02-22T12:05:33.306Z,1850.00
2023-02-22T12:06:34.226Z,1850.00
2023-02-22T12:07:34.184Z,1851.00
2023-02-22T12:08:33.210Z,1847.00
2023-02-22T12:09:34.217Z,1849.00
2023-02-22T12:10:34.237Z,1889.00
2023-02-22T12:11:34.240Z,1889.00
2023-02-22T12:12:34.225Z,1894.00
2023-02-22T12:13:33.246Z,1931.00
2023-02-22T12:14:34.269Z,1969.00
2023-02-22T12:15:33.383Z,1970.00
2023-02-22T12:16:33.357Z,1964.00
2023-02-22T12:17:34.309Z,1966.00
2023-02-22T12:18:34.341Z,1970.00
2023-02-22T12:19:34.369Z,1975.00
2023-02-22T12:20:34.337Z,2003.00
2023-02-22T12:21:33.411Z,2036.00
2023-02-22T12:22:34.366Z,2041.00
2023-02-22T12:23:34.504Z,2047.00
2023-02-22T12:24:34.346Z,2050.00
2023-02-22T12:25:33.342Z,2050.00
2023-02-22T12:26:34.477Z,2054.00
2023-02-22T12:27:34.404Z,2061.00
2023-02-22T12:28:34.379Z,2075.00
2023-02-22T12:29:33.374Z,2142.00
2023-02-22T12:30:33.775Z,2104.00
2023-02-22T12:31:34.575Z,2071.00
2023-02-22T12:32:34.707Z,2002.00
2023-02-22T12:33:34.618Z,1977.00
2023-02-22T12:34:34.639Z,1958.00
2023-02-22T12:35:34.631Z,1964.00
2023-02-22T12:36:34.629Z,1973.00
2023-02-22T12:37:34.649Z,1978.00
2023-02-22T12:38:33.631Z,1981.00
2023-02-22T12:39:47.156Z,1986.00
2023-02-22T12:40:34.686Z,1991.00
2023-02-22T12:41:34.678Z,1988.00
2023-02-22T12:42:33.697Z,1988.00
2023-02-22T12:43:34.692Z,1990.00
2023-02-22T12:44:34.685Z,1989.00
2023-02-22T12:45:34.755Z,1986.00
2023-02-22T12:46:34.756Z,1985.00
2023-02-22T12:47:33.684Z,1982.00
2023-02-22T12:48:34.637Z,1981.00
2023-02-22T12:49:34.674Z,1977.00
2023-02-22T12:50:33.605Z,1975.00
2023-02-22T12:51:33.631Z,1974.00
2023-02-22T12:52:34.645Z,1971.00
2023-02-22T12:53:33.637Z,1968.00
2023-02-22T12:54:33.676Z,1966.00
2023-02-22T12:55:34.619Z,1966.00
2023-02-22T12:56:34.637Z,1967.00
2023-02-22T12:57:33.629Z,1967.00
2023-02-22T12:58:34.644Z,1969.00
2023-02-22T12:59:34.587Z,1970.00
2023-02-22T13:00:34.547Z,1967.00
2023-02-22T13:01:33.606Z,1966.00
2023-02-22T13:02:33.637Z,1963.00
2023-02-22T13:03:33.542Z,1960.00
2023-02-22T13:04:34.598Z,1952.00
2023-02-22T13:05:34.594Z,1951.00
2023-02-22T13:06:34.522Z,1949.00
2023-02-22T13:07:34.615Z,1945.00
2023-02-22T13:08:33.522Z,1943.00
2023-02-22T13:09:34.496Z,1944.00
2023-02-22T13:10:34.489Z,1943.00
2023-02-22T13:11:34.514Z,1942.00
2023-02-22T13:12:34.498Z,1938.00
2023-02-22T13:13:34.463Z,1937.00
2023-02-22T13:14:33.485Z,1934.00
2023-02-22T13:15:34.481Z,1932.00
2023-02-22T13:16:34.458Z,1933.00
2023-02-22T13:17:34.445Z,1934.00
2023-02-22T13:18:33.527Z,1933.00
2023-02-22T13:19:33.449Z,1930.00
2023-02-22T13:20:34.482Z,1930.00
2023-02-22T13:21:33.421Z,1930.00
2023-02-22T13:22:33.400Z,1931.00
2023-02-22T13:23:34.433Z,1924.00
2023-02-22T14:20:51.853Z,1846.00
2023-02-22T14:21:52.729Z,1844.00
2023-02-22T14:22:51.888Z,1843.00
2023-02-22T14:23:52.760Z,1843.00
2023-02-22T14:24:52.086Z,1843.00
2023-02-22T14:25:52.703Z,1840.00
2023-02-22T14:50:26.622Z,1814.00
2023-02-22T14:51:27.232Z,1810.00
2023-02-22T14:55:26.706Z,1811.00
2023-02-22T14:58:26.930Z,1814.00
2023-02-22T15:01:33.961Z,1808.00
2023-02-22T15:02:27.031Z,1806.00
2023-02-22T15:03:29.051Z,1802.00
2023-02-22T15:04:27.020Z,1797.00
2023-02-22T15:05:26.005Z,1793.00
2023-02-22T15:06:26.978Z,1792.00
2023-02-22T15:08:26.969Z,1789.00
2023-02-22T15:09:29.606Z,1790.00
